sensor_id;sensor_type;location;lat;lon;timestamp;temperature;humidity
17423;DHT22;8829;47.932;7.810;2022-09-17T00:01:27;9.80;99.90
17423;DHT22;8829;47.932;7.810;2022-09-17T00:03:56;9.70;99.90
17423;DHT22;8829;47.932;7.810;2022-09-17T00:06:25;9.70;99.90
17423;DHT22;8829;47.932;7.810;2022-09-17T00:08:52;9.60;99.90
17423;DHT22;8829;47.932;7.810;2022-09-17T00:11:22;9.60;99.90
17423;DHT22;8829;47.932;7.810;2022-09-17T00:13:50;9.60;99.90
17423;DHT22;8829;47.932;7.810;2022-09-17T00:16:26;9.50;99.90
17423;DHT22;8829;47.932;7.810;2022-09-17T00:18:54;9.50;99.90
17423;DHT22;8829;47.932;7.810;2022-09-17T00:21:21;9.40;99.90
17423;DHT22;8829;47.932;7.810;2022-09-17T00:23:52;9.40;99.90
17423;DHT22;8829;47.932;7.810;2022-09-17T00:26:20;9.40;99.90
17423;DHT22;8829;47.932;7.810;2022-09-17T00:28:49;9.40;99.90
17423;DHT22;8829;47.932;7.810;2022-09-17T00:31:16;9.50;99.90
17423;DHT22;8829;47.932;7.810;2022-09-17T00:33:42;9.50;99.90
17423;DHT22;8829;47.932;7.810;2022-09-17T00:36:09;9.60;99.90
17423;DHT22;8829;47.932;7.810;2022-09-17T00:38:36;9.40;99.90
17423;DHT22;8829;47.932;7.810;2022-09-17T00:41:03;9.40;99.90
17423;DHT22;8829;47.932;7.810;2022-09-17T00:43:39;9.40;99.90
17423;DHT22;8829;47.932;7.810;2022-09-17T00:46:15;9.40;99.90
17423;DHT22;8829;47.932;7.810;2022-09-17T00:48:44;9.60;99.90
17423;DHT22;8829;47.932;7.810;2022-09-17T00:51:14;9.60;99.90
17423;DHT22;8829;47.932;7.810;2022-09-17T00:53:42;9.60;99.90
17423;DHT22;8829;47.932;7.810;2022-09-17T00:56:15;9.60;99.90
17423;DHT22;8829;47.932;7.810;2022-09-17T00:58:45;9.60;99.90
17423;DHT22;8829;47.932;7.810;2022-09-17T01:01:13;9.60;99.90
17423;DHT22;8829;47.932;7.810;2022-09-17T01:03:40;9.50;99.90
17423;DHT22;8829;47.932;7.810;2022-09-17T01:06:14;9.40;99.90
17423;DHT22;8829;47.932;7.810;2022-09-17T01:08:57;9.30;99.90
17423;DHT22;8829;47.932;7.810;2022-09-17T01:11:39;9.20;99.90
17423;DHT22;8829;47.932;7.810;2022-09-17T01:14:18;9.20;99.90
17423;DHT22;8829;47.932;7.810;2022-09-17T01:16:54;9.20;99.90
17423;DHT22;8829;47.932;7.810;2022-09-17T01:20:08;9.20;99.90
17423;DHT22;8829;47.932;7.810;2022-09-17T01:22:46;9.30;99.90
17423;DHT22;8829;47.932;7.810;2022-09-17T01:25:21;9.40;99.90
17423;DHT22;8829;47.932;7.810;2022-09-17T01:28:13;9.30;99.90
17423;DHT22;8829;47.932;7.810;2022-09-17T01:31:00;9.30;99.90
17423;DHT22;8829;47.932;7.810;2022-09-17T01:33:34;9.20;99.90
17423;DHT22;8829;47.932;7.810;2022-09-17T01:36:12;9.20;99.90
17423;DHT22;8829;47.932;7.810;2022-09-17T01:38:50;9.20;99.90
17423;DHT22;8829;47.932;7.810;2022-09-17T01:41:25;9.20;99.90
17423;DHT22;8829;47.932;7.810;2022-09-17T01:43:58;9.30;99.90
17423;DHT22;8829;47.932;7.810;2022-09-17T01:46:30;9.40;99.90
17423;DHT22;8829;47.932;7.810;2022-09-17T01:49:00;9.40;99.90
17423;DHT22;8829;47.932;7.810;2022-09-17T01:51:37;9.40;99.90
17423;DHT22;8829;47.932;7.810;2022-09-17T01:54:09;9.30;99.90
17423;DHT22;8829;47.932;7.810;2022-09-17T01:56:39;9.30;99.90
17423;DHT22;8829;47.932;7.810;2022-09-17T01:59:13;9.30;99.90
17423;DHT22;8829;47.932;7.810;2022-09-17T02:01:44;9.30;99.90
17423;DHT22;8829;47.932;7.810;2022-09-17T02:04:16;9.50;99.90
17423;DHT22;8829;47.932;7.810;2022-09-17T02:06:49;9.50;99.90
17423;DHT22;8829;47.932;7.810;2022-09-17T02:09:21;9.50;99.90
17423;DHT22;8829;47.932;7.810;2022-09-17T02:11:51;9.60;99.90
17423;DHT22;8829;47.932;7.810;2022-09-17T02:14:24;9.70;99.90
17423;DHT22;8829;47.932;7.810;2022-09-17T02:16:55;9.80;99.90
17423;DHT22;8829;47.932;7.810;2022-09-17T02:19:27;9.90;99.90
17423;DHT22;8829;47.932;7.810;2022-09-17T02:22:00;10.00;99.90
17423;DHT22;8829;47.932;7.810;2022-09-17T02:24:32;10.10;99.90
17423;DHT22;8829;47.932;7.810;2022-09-17T02:27:04;10.20;99.90
17423;DHT22;8829;47.932;7.810;2022-09-17T02:29:35;10.10;99.90
17423;DHT22;8829;47.932;7.810;2022-09-17T02:32:04;10.00;99.90
17423;DHT22;8829;47.932;7.810;2022-09-17T02:34:31;9.90;99.90
17423;DHT22;8829;47.932;7.810;2022-09-17T02:36:59;9.80;99.90
17423;DHT22;8829;47.932;7.810;2022-09-17T02:39:27;9.60;99.90
17423;DHT22;8829;47.932;7.810;2022-09-17T02:42:00;9.70;99.90
17423;DHT22;8829;47.932;7.810;2022-09-17T02:44:36;9.60;99.90
17423;DHT22;8829;47.932;7.810;2022-09-17T02:47:18;9.70;99.90
17423;DHT22;8829;47.932;7.810;2022-09-17T02:50:05;9.80;99.90
17423;DHT22;8829;47.932;7.810;2022-09-17T02:52:47;9.90;99.90
17423;DHT22;8829;47.932;7.810;2022-09-17T02:55:18;9.90;99.90
17423;DHT22;8829;47.932;7.810;2022-09-17T02:57:53;9.90;99.90
17423;DHT22;8829;47.932;7.810;2022-09-17T03:00:23;9.60;99.90
17423;DHT22;8829;47.932;7.810;2022-09-17T03:02:56;9.30;99.90
17423;DHT22;8829;47.932;7.810;2022-09-17T03:05:25;9.40;99.90
17423;DHT22;8829;47.932;7.810;2022-09-17T03:07:54;9.50;99.90
17423;DHT22;8829;47.932;7.810;2022-09-17T03:10:21;9.60;99.90
17423;DHT22;8829;47.932;7.810;2022-09-17T03:12:48;9.60;99.90
17423;DHT22;8829;47.932;7.810;2022-09-17T03:15:15;9.60;99.90
17423;DHT22;8829;47.932;7.810;2022-09-17T03:17:42;9.60;99.90
17423;DHT22;8829;47.932;7.810;2022-09-17T03:20:10;9.60;99.90
17423;DHT22;8829;47.932;7.810;2022-09-17T03:22:36;9.50;99.90
17423;DHT22;8829;47.932;7.810;2022-09-17T03:25:04;9.40;99.90
17423;DHT22;8829;47.932;7.810;2022-09-17T03:27:31;9.20;99.90
17423;DHT22;8829;47.932;7.810;2022-09-17T03:29:57;9.30;99.90
17423;DHT22;8829;47.932;7.810;2022-09-17T03:32:24;9.40;99.90
17423;DHT22;8829;47.932;7.810;2022-09-17T03:34:51;9.30;99.90
17423;DHT22;8829;47.932;7.810;2022-09-17T03:37:20;9.10;99.90
17423;DHT22;8829;47.932;7.810;2022-09-17T03:39:47;9.00;99.90
17423;DHT22;8829;47.932;7.810;2022-09-17T03:42:13;9.00;99.90
17423;DHT22;8829;47.932;7.810;2022-09-17T03:44:40;9.10;99.90
17423;DHT22;8829;47.932;7.810;2022-09-17T03:47:07;9.10;99.90
17423;DHT22;8829;47.932;7.810;2022-09-17T03:49:33;9.10;99.90
17423;DHT22;8829;47.932;7.810;2022-09-17T03:52:00;9.10;99.90
17423;DHT22;8829;47.932;7.810;2022-09-17T03:54:29;9.10;99.90
17423;DHT22;8829;47.932;7.810;2022-09-17T03:56:55;9.10;99.90
17423;DHT22;8829;47.932;7.810;2022-09-17T03:59:22;9.10;99.90
17423;DHT22;8829;47.932;7.810;2022-09-17T04:01:49;9.10;99.90
17423;DHT22;8829;47.932;7.810;2022-09-17T04:04:15;9.10;99.90
17423;DHT22;8829;47.932;7.810;2022-09-17T04:06:42;9.10;99.90
17423;DHT22;8829;47.932;7.810;2022-09-17T04:09:09;9.10;99.90
17423;DHT22;8829;47.932;7.810;2022-09-17T04:11:37;9.10;99.90
17423;DHT22;8829;47.932;7.810;2022-09-17T04:14:03;9.10;99.90
17423;DHT22;8829;47.932;7.810;2022-09-17T04:16:30;9.00;99.90
17423;DHT22;8829;47.932;7.810;2022-09-17T04:18:57;9.10;99.90
17423;DHT22;8829;47.932;7.810;2022-09-17T04:21:23;9.10;99.90
17423;DHT22;8829;47.932;7.810;2022-09-17T04:23:50;9.10;99.90
17423;DHT22;8829;47.932;7.810;2022-09-17T04:26:17;9.10;99.90
17423;DHT22;8829;47.932;7.810;2022-09-17T04:28:45;9.10;99.90
17423;DHT22;8829;47.932;7.810;2022-09-17T04:31:11;9.10;99.90
17423;DHT22;8829;47.932;7.810;2022-09-17T04:33:38;9.10;99.90
17423;DHT22;8829;47.932;7.810;2022-09-17T04:36:05;9.10;99.90
17423;DHT22;8829;47.932;7.810;2022-09-17T04:38:32;9.40;99.90
17423;DHT22;8829;47.932;7.810;2022-09-17T04:40:59;8.90;99.90
17423;DHT22;8829;47.932;7.810;2022-09-17T04:43:26;8.90;99.90
17423;DHT22;8829;47.932;7.810;2022-09-17T04:45:54;8.90;99.90
17423;DHT22;8829;47.932;7.810;2022-09-17T04:48:20;8.90;99.90
17423;DHT22;8829;47.932;7.810;2022-09-17T04:50:47;8.80;99.90
17423;DHT22;8829;47.932;7.810;2022-09-17T04:53:14;8.80;99.90
17423;DHT22;8829;47.932;7.810;2022-09-17T04:55:41;8.70;99.90
17423;DHT22;8829;47.932;7.810;2022-09-17T04:58:08;8.80;99.90
17423;DHT22;8829;47.932;7.810;2022-09-17T05:00:35;8.80;99.90
17423;DHT22;8829;47.932;7.810;2022-09-17T05:03:03;8.90;99.90
17423;DHT22;8829;47.932;7.810;2022-09-17T05:05:30;8.80;99.90
17423;DHT22;8829;47.932;7.810;2022-09-17T05:07:57;8.80;99.90
17423;DHT22;8829;47.932;7.810;2022-09-17T05:10:23;8.80;99.90
17423;DHT22;8829;47.932;7.810;2022-09-17T05:12:51;8.90;99.90
17423;DHT22;8829;47.932;7.810;2022-09-17T05:15:19;8.80;99.90
17423;DHT22;8829;47.932;7.810;2022-09-17T05:17:46;8.80;99.90
17423;DHT22;8829;47.932;7.810;2022-09-17T05:20:15;8.80;99.90
17423;DHT22;8829;47.932;7.810;2022-09-17T05:22:43;8.80;99.90
17423;DHT22;8829;47.932;7.810;2022-09-17T05:25:11;8.90;99.90
17423;DHT22;8829;47.932;7.810;2022-09-17T05:27:38;9.00;99.90
17423;DHT22;8829;47.932;7.810;2022-09-17T05:30:06;9.20;99.90
17423;DHT22;8829;47.932;7.810;2022-09-17T05:32:33;9.30;99.90
17423;DHT22;8829;47.932;7.810;2022-09-17T05:35:00;9.30;99.90
17423;DHT22;8829;47.932;7.810;2022-09-17T05:37:29;9.20;99.90
17423;DHT22;8829;47.932;7.810;2022-09-17T05:39:55;9.10;99.90
17423;DHT22;8829;47.932;7.810;2022-09-17T05:42:22;9.10;99.90
17423;DHT22;8829;47.932;7.810;2022-09-17T05:44:49;9.10;99.90
17423;DHT22;8829;47.932;7.810;2022-09-17T05:47:15;9.10;99.90
17423;DHT22;8829;47.932;7.810;2022-09-17T05:49:42;9.10;99.90
17423;DHT22;8829;47.932;7.810;2022-09-17T05:52:09;9.10;99.90
17423;DHT22;8829;47.932;7.810;2022-09-17T05:54:37;9.50;99.90
17423;DHT22;8829;47.932;7.810;2022-09-17T05:57:04;9.30;99.90
17423;DHT22;8829;47.932;7.810;2022-09-17T05:59:31;9.30;99.90
17423;DHT22;8829;47.932;7.810;2022-09-17T06:01:58;9.20;99.90
17423;DHT22;8829;47.932;7.810;2022-09-17T06:04:24;9.20;99.90
17423;DHT22;8829;47.932;7.810;2022-09-17T06:06:52;9.20;99.90
17423;DHT22;8829;47.932;7.810;2022-09-17T06:09:18;9.20;99.90
17423;DHT22;8829;47.932;7.810;2022-09-17T06:11:46;9.20;99.90
17423;DHT22;8829;47.932;7.810;2022-09-17T06:14:13;9.20;99.90
17423;DHT22;8829;47.932;7.810;2022-09-17T06:16:40;9.20;99.90
17423;DHT22;8829;47.932;7.810;2022-09-17T06:19:07;9.20;99.90
17423;DHT22;8829;47.932;7.810;2022-09-17T06:21:34;9.20;99.90
17423;DHT22;8829;47.932;7.810;2022-09-17T06:24:01;9.20;99.90
17423;DHT22;8829;47.932;7.810;2022-09-17T06:26:28;9.20;99.90
17423;DHT22;8829;47.932;7.810;2022-09-17T06:28:59;9.30;99.90
17423;DHT22;8829;47.932;7.810;2022-09-17T06:31:26;9.40;99.90
17423;DHT22;8829;47.932;7.810;2022-09-17T06:33:54;9.40;99.90
17423;DHT22;8829;47.932;7.810;2022-09-17T06:36:21;9.70;99.90
17423;DHT22;8829;47.932;7.810;2022-09-17T06:38:48;9.90;99.90
17423;DHT22;8829;47.932;7.810;2022-09-17T06:41:15;10.00;99.90
17423;DHT22;8829;47.932;7.810;2022-09-17T06:43:42;9.90;99.90
17423;DHT22;8829;47.932;7.810;2022-09-17T06:46:11;9.90;99.90
17423;DHT22;8829;47.932;7.810;2022-09-17T06:48:37;10.10;99.90
17423;DHT22;8829;47.932;7.810;2022-09-17T06:51:06;10.30;99.90
17423;DHT22;8829;47.932;7.810;2022-09-17T06:53:33;10.50;99.90
17423;DHT22;8829;47.932;7.810;2022-09-17T06:56:01;10.70;99.90
17423;DHT22;8829;47.932;7.810;2022-09-17T06:58:29;10.50;99.90
17423;DHT22;8829;47.932;7.810;2022-09-17T07:00:57;10.50;99.90
17423;DHT22;8829;47.932;7.810;2022-09-17T07:03:27;10.60;99.90
17423;DHT22;8829;47.932;7.810;2022-09-17T07:05:54;10.80;99.90
17423;DHT22;8829;47.932;7.810;2022-09-17T07:08:20;10.90;99.90
17423;DHT22;8829;47.932;7.810;2022-09-17T07:10:47;11.10;99.90
17423;DHT22;8829;47.932;7.810;2022-09-17T07:13:14;11.30;99.90
17423;DHT22;8829;47.932;7.810;2022-09-17T07:15:41;11.50;99.90
17423;DHT22;8829;47.932;7.810;2022-09-17T07:18:08;11.70;99.90
17423;DHT22;8829;47.932;7.810;2022-09-17T07:20:36;11.80;99.90
17423;DHT22;8829;47.932;7.810;2022-09-17T07:23:03;12.00;99.90
17423;DHT22;8829;47.932;7.810;2022-09-17T07:25:30;12.00;99.90
17423;DHT22;8829;47.932;7.810;2022-09-17T07:27:57;12.10;99.90
17423;DHT22;8829;47.932;7.810;2022-09-17T07:30:24;12.20;99.90
17423;DHT22;8829;47.932;7.810;2022-09-17T07:32:51;12.30;99.90
17423;DHT22;8829;47.932;7.810;2022-09-17T07:35:17;12.50;99.90
17423;DHT22;8829;47.932;7.810;2022-09-17T07:37:45;12.60;99.90
17423;DHT22;8829;47.932;7.810;2022-09-17T07:40:12;12.70;99.90
17423;DHT22;8829;47.932;7.810;2022-09-17T07:42:39;12.60;99.90
17423;DHT22;8829;47.932;7.810;2022-09-17T07:45:06;12.70;99.90
17423;DHT22;8829;47.932;7.810;2022-09-17T07:47:37;12.90;99.90
17423;DHT22;8829;47.932;7.810;2022-09-17T07:50:05;13.20;99.90
17423;DHT22;8829;47.932;7.810;2022-09-17T07:52:32;13.20;99.90
17423;DHT22;8829;47.932;7.810;2022-09-17T07:55:00;13.50;99.90
17423;DHT22;8829;47.932;7.810;2022-09-17T07:57:26;13.50;99.90
17423;DHT22;8829;47.932;7.810;2022-09-17T07:59:53;13.50;99.90
17423;DHT22;8829;47.932;7.810;2022-09-17T08:02:20;13.60;99.90
17423;DHT22;8829;47.932;7.810;2022-09-17T08:04:47;13.60;99.90
17423;DHT22;8829;47.932;7.810;2022-09-17T08:07:14;13.80;99.90
17423;DHT22;8829;47.932;7.810;2022-09-17T08:09:40;13.90;99.90
17423;DHT22;8829;47.932;7.810;2022-09-17T08:12:08;14.00;99.90
17423;DHT22;8829;47.932;7.810;2022-09-17T08:14:35;13.90;99.90
17423;DHT22;8829;47.932;7.810;2022-09-17T08:17:02;14.00;99.90
17423;DHT22;8829;47.932;7.810;2022-09-17T08:19:30;14.20;99.90
17423;DHT22;8829;47.932;7.810;2022-09-17T08:21:57;14.10;99.90
17423;DHT22;8829;47.932;7.810;2022-09-17T08:24:24;13.80;99.90
17423;DHT22;8829;47.932;7.810;2022-09-17T08:26:51;13.50;99.90
17423;DHT22;8829;47.932;7.810;2022-09-17T08:29:19;13.10;99.90
17423;DHT22;8829;47.932;7.810;2022-09-17T08:31:45;12.90;99.90
17423;DHT22;8829;47.932;7.810;2022-09-17T08:34:12;12.70;99.90
17423;DHT22;8829;47.932;7.810;2022-09-17T08:36:39;12.50;99.90
17423;DHT22;8829;47.932;7.810;2022-09-17T08:39:06;12.40;99.90
17423;DHT22;8829;47.932;7.810;2022-09-17T08:41:44;12.40;99.90
17423;DHT22;8829;47.932;7.810;2022-09-17T08:47:00;12.50;99.90
17423;DHT22;8829;47.932;7.810;2022-09-17T08:49:33;12.60;99.90
17423;DHT22;8829;47.932;7.810;2022-09-17T08:52:14;12.60;99.90
17423;DHT22;8829;47.932;7.810;2022-09-17T08:54:48;12.60;99.90
17423;DHT22;8829;47.932;7.810;2022-09-17T08:57:22;12.60;99.90
17423;DHT22;8829;47.932;7.810;2022-09-17T08:59:56;12.80;99.90
17423;DHT22;8829;47.932;7.810;2022-09-17T09:02:38;13.00;99.90
17423;DHT22;8829;47.932;7.810;2022-09-17T09:05:09;13.10;99.90
17423;DHT22;8829;47.932;7.810;2022-09-17T09:07:41;13.10;99.90
17423;DHT22;8829;47.932;7.810;2022-09-17T09:10:14;13.00;99.90
17423;DHT22;8829;47.932;7.810;2022-09-17T09:12:43;12.90;99.90
17423;DHT22;8829;47.932;7.810;2022-09-17T09:15:20;12.90;99.90
17423;DHT22;8829;47.932;7.810;2022-09-17T09:17:50;12.90;99.90
17423;DHT22;8829;47.932;7.810;2022-09-17T09:20:21;12.80;99.90
17423;DHT22;8829;47.932;7.810;2022-09-17T09:22:51;12.90;99.90
17423;DHT22;8829;47.932;7.810;2022-09-17T09:25:21;12.90;99.90
17423;DHT22;8829;47.932;7.810;2022-09-17T09:28:01;12.80;99.90
17423;DHT22;8829;47.932;7.810;2022-09-17T09:30:41;13.00;99.90
17423;DHT22;8829;47.932;7.810;2022-09-17T09:33:14;13.30;99.90
17423;DHT22;8829;47.932;7.810;2022-09-17T09:35:43;13.70;99.90
17423;DHT22;8829;47.932;7.810;2022-09-17T09:38:17;13.80;99.90
17423;DHT22;8829;47.932;7.810;2022-09-17T09:40:52;14.00;99.90
17423;DHT22;8829;47.932;7.810;2022-09-17T09:43:21;14.10;99.90
17423;DHT22;8829;47.932;7.810;2022-09-17T09:46:06;14.00;99.90
17423;DHT22;8829;47.932;7.810;2022-09-17T09:48:45;14.00;99.90
17423;DHT22;8829;47.932;7.810;2022-09-17T09:51:23;14.20;99.90
17423;DHT22;8829;47.932;7.810;2022-09-17T09:54:02;14.30;99.90
17423;DHT22;8829;47.932;7.810;2022-09-17T09:56:50;14.50;99.90
17423;DHT22;8829;47.932;7.810;2022-09-17T09:59:19;14.60;99.90
17423;DHT22;8829;47.932;7.810;2022-09-17T10:01:46;14.40;99.90
17423;DHT22;8829;47.932;7.810;2022-09-17T10:04:17;14.40;99.90
17423;DHT22;8829;47.932;7.810;2022-09-17T10:06:45;14.40;99.90
17423;DHT22;8829;47.932;7.810;2022-09-17T10:09:14;14.40;99.90
17423;DHT22;8829;47.932;7.810;2022-09-17T10:11:41;14.50;99.90
17423;DHT22;8829;47.932;7.810;2022-09-17T10:14:22;14.50;99.90
17423;DHT22;8829;47.932;7.810;2022-09-17T10:16:52;14.70;99.90
17423;DHT22;8829;47.932;7.810;2022-09-17T10:19:36;14.90;99.90
17423;DHT22;8829;47.932;7.810;2022-09-17T10:22:24;14.90;99.90
17423;DHT22;8829;47.932;7.810;2022-09-17T10:24:52;14.80;99.90
17423;DHT22;8829;47.932;7.810;2022-09-17T10:27:20;14.70;99.90
17423;DHT22;8829;47.932;7.810;2022-09-17T10:29:50;14.60;99.90
17423;DHT22;8829;47.932;7.810;2022-09-17T10:32:19;14.30;99.90
17423;DHT22;8829;47.932;7.810;2022-09-17T10:34:59;14.10;99.90
17423;DHT22;8829;47.932;7.810;2022-09-17T10:37:41;14.20;99.90
17423;DHT22;8829;47.932;7.810;2022-09-17T10:40:31;14.20;99.90
17423;DHT22;8829;47.932;7.810;2022-09-17T10:43:17;14.30;99.90
17423;DHT22;8829;47.932;7.810;2022-09-17T10:45:54;14.30;99.90
17423;DHT22;8829;47.932;7.810;2022-09-17T10:48:23;14.30;99.90
17423;DHT22;8829;47.932;7.810;2022-09-17T10:50:55;14.70;99.90
17423;DHT22;8829;47.932;7.810;2022-09-17T10:53:24;14.90;99.90
17423;DHT22;8829;47.932;7.810;2022-09-17T10:55:56;15.20;99.90
17423;DHT22;8829;47.932;7.810;2022-09-17T10:58:34;15.20;99.90
17423;DHT22;8829;47.932;7.810;2022-09-17T11:01:09;15.20;99.90
17423;DHT22;8829;47.932;7.810;2022-09-17T11:04:16;15.10;99.90
17423;DHT22;8829;47.932;7.810;2022-09-17T11:09:51;15.10;99.90
17423;DHT22;8829;47.932;7.810;2022-09-17T11:12:27;15.40;99.90
17423;DHT22;8829;47.932;7.810;2022-09-17T11:15:01;15.30;99.90
17423;DHT22;8829;47.932;7.810;2022-09-17T11:17:51;15.40;99.90
17423;DHT22;8829;47.932;7.810;2022-09-17T11:20:33;15.30;99.90
17423;DHT22;8829;47.932;7.810;2022-09-17T11:23:21;15.10;99.90
17423;DHT22;8829;47.932;7.810;2022-09-17T11:25:55;14.70;99.90
17423;DHT22;8829;47.932;7.810;2022-09-17T11:28:42;14.30;99.90
17423;DHT22;8829;47.932;7.810;2022-09-17T11:31:23;14.10;99.90
17423;DHT22;8829;47.932;7.810;2022-09-17T11:36:49;14.00;99.90
17423;DHT22;8829;47.932;7.810;2022-09-17T11:39:22;14.00;99.90
17423;DHT22;8829;47.932;7.810;2022-09-17T11:41:53;14.20;99.90
17423;DHT22;8829;47.932;7.810;2022-09-17T11:44:24;14.40;99.90
17423;DHT22;8829;47.932;7.810;2022-09-17T11:46:57;14.70;99.90
17423;DHT22;8829;47.932;7.810;2022-09-17T11:49:32;14.70;99.90
17423;DHT22;8829;47.932;7.810;2022-09-17T11:52:03;14.90;99.90
17423;DHT22;8829;47.932;7.810;2022-09-17T11:54:37;15.00;99.90
17423;DHT22;8829;47.932;7.810;2022-09-17T11:57:09;15.00;99.90
17423;DHT22;8829;47.932;7.810;2022-09-17T11:59:40;14.70;99.90
17423;DHT22;8829;47.932;7.810;2022-09-17T12:02:16;14.60;99.90
17423;DHT22;8829;47.932;7.810;2022-09-17T12:04:48;14.50;99.90
17423;DHT22;8829;47.932;7.810;2022-09-17T12:07:35;14.50;99.90
17423;DHT22;8829;47.932;7.810;2022-09-17T12:10:28;14.60;99.90
17423;DHT22;8829;47.932;7.810;2022-09-17T12:13:02;14.40;99.90
17423;DHT22;8829;47.932;7.810;2022-09-17T12:15:34;14.40;99.90
17423;DHT22;8829;47.932;7.810;2022-09-17T12:18:13;14.50;99.90
17423;DHT22;8829;47.932;7.810;2022-09-17T12:20:45;14.40;99.90
17423;DHT22;8829;47.932;7.810;2022-09-17T12:23:16;14.20;99.90
17423;DHT22;8829;47.932;7.810;2022-09-17T12:25:49;14.00;99.90
17423;DHT22;8829;47.932;7.810;2022-09-17T12:28:22;13.90;99.90
17423;DHT22;8829;47.932;7.810;2022-09-17T12:30:57;13.70;99.90
17423;DHT22;8829;47.932;7.810;2022-09-17T12:33:31;13.50;99.90
17423;DHT22;8829;47.932;7.810;2022-09-17T12:36:10;13.30;99.90
17423;DHT22;8829;47.932;7.810;2022-09-17T12:41:59;13.10;99.90
17423;DHT22;8829;47.932;7.810;2022-09-17T12:44:51;13.20;99.90
17423;DHT22;8829;47.932;7.810;2022-09-17T12:47:53;13.30;99.90
17423;DHT22;8829;47.932;7.810;2022-09-17T12:50:31;13.10;99.90
17423;DHT22;8829;47.932;7.810;2022-09-17T12:53:13;13.00;99.90
17423;DHT22;8829;47.932;7.810;2022-09-17T12:55:48;13.00;99.90
17423;DHT22;8829;47.932;7.810;2022-09-17T12:58:33;13.10;99.90
17423;DHT22;8829;47.932;7.810;2022-09-17T13:01:06;13.30;99.90
17423;DHT22;8829;47.932;7.810;2022-09-17T13:03:40;13.40;99.90
17423;DHT22;8829;47.932;7.810;2022-09-17T13:06:34;13.50;99.90
17423;DHT22;8829;47.932;7.810;2022-09-17T13:09:17;13.60;99.90
17423;DHT22;8829;47.932;7.810;2022-09-17T13:12:03;13.70;99.90
17423;DHT22;8829;47.932;7.810;2022-09-17T13:14:50;13.80;99.90
17423;DHT22;8829;47.932;7.810;2022-09-17T13:17:26;13.90;99.90
17423;DHT22;8829;47.932;7.810;2022-09-17T13:20:02;14.00;99.90
17423;DHT22;8829;47.932;7.810;2022-09-17T13:22:30;14.10;99.90
17423;DHT22;8829;47.932;7.810;2022-09-17T13:25:03;14.10;99.90
17423;DHT22;8829;47.932;7.810;2022-09-17T13:27:32;14.20;99.90
17423;DHT22;8829;47.932;7.810;2022-09-17T13:30:01;14.30;99.90
17423;DHT22;8829;47.932;7.810;2022-09-17T13:32:48;14.30;99.90
17423;DHT22;8829;47.932;7.810;2022-09-17T13:35:46;14.70;99.90
17423;DHT22;8829;47.932;7.810;2022-09-17T13:38:15;15.00;99.90
17423;DHT22;8829;47.932;7.810;2022-09-17T13:40:42;15.10;99.90
17423;DHT22;8829;47.932;7.810;2022-09-17T13:43:11;14.70;99.90
17423;DHT22;8829;47.932;7.810;2022-09-17T13:46:05;14.80;99.90
17423;DHT22;8829;47.932;7.810;2022-09-17T13:48:42;15.10;99.90
17423;DHT22;8829;47.932;7.810;2022-09-17T13:51:45;15.30;99.90
17423;DHT22;8829;47.932;7.810;2022-09-17T13:54:13;15.50;99.90
17423;DHT22;8829;47.932;7.810;2022-09-17T13:56:43;15.60;99.90
17423;DHT22;8829;47.932;7.810;2022-09-17T13:59:14;15.50;99.90
17423;DHT22;8829;47.932;7.810;2022-09-17T14:01:58;15.40;99.90
17423;DHT22;8829;47.932;7.810;2022-09-17T14:04:45;15.40;99.90
17423;DHT22;8829;47.932;7.810;2022-09-17T14:07:32;15.30;99.90
17423;DHT22;8829;47.932;7.810;2022-09-17T14:10:01;15.30;99.90
17423;DHT22;8829;47.932;7.810;2022-09-17T14:12:50;15.30;99.90
17423;DHT22;8829;47.932;7.810;2022-09-17T14:18:36;15.10;99.90
17423;DHT22;8829;47.932;7.810;2022-09-17T14:21:15;14.90;99.90
17423;DHT22;8829;47.932;7.810;2022-09-17T14:23:53;14.80;99.90
17423;DHT22;8829;47.932;7.810;2022-09-17T14:26:32;14.70;99.90
17423;DHT22;8829;47.932;7.810;2022-09-17T14:29:05;14.50;99.90
17423;DHT22;8829;47.932;7.810;2022-09-17T14:31:35;14.40;99.90
17423;DHT22;8829;47.932;7.810;2022-09-17T14:34:04;14.50;99.90
17423;DHT22;8829;47.932;7.810;2022-09-17T14:36:34;14.60;99.90
17423;DHT22;8829;47.932;7.810;2022-09-17T14:39:04;14.70;99.90
17423;DHT22;8829;47.932;7.810;2022-09-17T14:41:39;14.70;99.90
17423;DHT22;8829;47.932;7.810;2022-09-17T14:44:10;14.80;99.90
17423;DHT22;8829;47.932;7.810;2022-09-17T14:46:42;14.90;99.90
17423;DHT22;8829;47.932;7.810;2022-09-17T14:49:14;14.90;99.90
17423;DHT22;8829;47.932;7.810;2022-09-17T14:51:41;14.80;99.90
17423;DHT22;8829;47.932;7.810;2022-09-17T14:54:15;14.80;99.90
17423;DHT22;8829;47.932;7.810;2022-09-17T14:56:50;14.80;99.90
17423;DHT22;8829;47.932;7.810;2022-09-17T14:59:22;14.90;99.90
17423;DHT22;8829;47.932;7.810;2022-09-17T15:01:51;15.00;99.90
17423;DHT22;8829;47.932;7.810;2022-09-17T15:04:22;14.90;99.90
17423;DHT22;8829;47.932;7.810;2022-09-17T15:06:50;14.90;99.90
17423;DHT22;8829;47.932;7.810;2022-09-17T15:09:18;14.80;99.90
17423;DHT22;8829;47.932;7.810;2022-09-17T15:11:46;14.60;99.90
17423;DHT22;8829;47.932;7.810;2022-09-17T15:14:16;14.40;99.90
17423;DHT22;8829;47.932;7.810;2022-09-17T15:16:48;14.40;99.90
17423;DHT22;8829;47.932;7.810;2022-09-17T15:19:23;14.20;99.90
17423;DHT22;8829;47.932;7.810;2022-09-17T15:21:54;14.10;99.90
17423;DHT22;8829;47.932;7.810;2022-09-17T15:24:30;13.90;99.90
17423;DHT22;8829;47.932;7.810;2022-09-17T15:27:03;13.80;99.90
17423;DHT22;8829;47.932;7.810;2022-09-17T15:29:32;13.80;99.90
17423;DHT22;8829;47.932;7.810;2022-09-17T15:32:02;13.90;99.90
17423;DHT22;8829;47.932;7.810;2022-09-17T15:34:31;13.90;99.90
17423;DHT22;8829;47.932;7.810;2022-09-17T15:37:05;14.00;99.90
17423;DHT22;8829;47.932;7.810;2022-09-17T15:39:38;14.20;99.90
17423;DHT22;8829;47.932;7.810;2022-09-17T15:42:16;14.20;99.90
17423;DHT22;8829;47.932;7.810;2022-09-17T15:44:43;14.20;99.90
17423;DHT22;8829;47.932;7.810;2022-09-17T15:47:35;14.10;99.90
17423;DHT22;8829;47.932;7.810;2022-09-17T15:50:13;14.20;99.90
17423;DHT22;8829;47.932;7.810;2022-09-17T15:52:41;14.20;99.90
17423;DHT22;8829;47.932;7.810;2022-09-17T15:55:27;14.20;99.90
17423;DHT22;8829;47.932;7.810;2022-09-17T15:57:55;14.20;99.90
17423;DHT22;8829;47.932;7.810;2022-09-17T16:00:22;14.10;99.90
17423;DHT22;8829;47.932;7.810;2022-09-17T16:02:49;13.90;99.90
17423;DHT22;8829;47.932;7.810;2022-09-17T16:05:50;13.80;99.90
17423;DHT22;8829;47.932;7.810;2022-09-17T16:08:22;13.70;99.90
17423;DHT22;8829;47.932;7.810;2022-09-17T16:10:49;13.60;99.90
17423;DHT22;8829;47.932;7.810;2022-09-17T16:13:16;13.60;99.90
17423;DHT22;8829;47.932;7.810;2022-09-17T16:15:43;13.60;99.90
17423;DHT22;8829;47.932;7.810;2022-09-17T16:18:14;13.50;99.90
17423;DHT22;8829;47.932;7.810;2022-09-17T16:20:41;13.40;99.90
17423;DHT22;8829;47.932;7.810;2022-09-17T16:23:09;13.40;99.90
17423;DHT22;8829;47.932;7.810;2022-09-17T16:25:36;13.40;99.90
17423;DHT22;8829;47.932;7.810;2022-09-17T16:28:10;13.40;99.90
17423;DHT22;8829;47.932;7.810;2022-09-17T16:30:40;13.40;99.90
17423;DHT22;8829;47.932;7.810;2022-09-17T16:33:11;13.30;99.90
17423;DHT22;8829;47.932;7.810;2022-09-17T16:35:37;13.20;99.90
17423;DHT22;8829;47.932;7.810;2022-09-17T16:38:04;13.20;99.90